createdAt,value
2019-06-10T00:00:22.573Z,18.34
2019-06-10T00:01:22.636Z,18.33
2019-06-10T00:02:22.700Z,18.22
2019-06-10T00:03:22.781Z,18.23
2019-06-10T00:04:22.842Z,18.23
2019-06-10T00:05:22.902Z,18.20
2019-06-10T00:06:22.960Z,18.20
2019-06-10T00:07:23.029Z,18.18
2019-06-10T00:08:23.104Z,18.10
2019-06-10T00:09:23.162Z,18.07
2019-06-10T00:10:23.224Z,18.10
2019-06-10T00:11:23.288Z,18.03
2019-06-10T00:12:23.353Z,18.03
2019-06-10T00:13:23.425Z,18.03
2019-06-10T00:14:23.489Z,17.98
2019-06-10T00:15:23.545Z,17.89
2019-06-10T00:16:23.613Z,17.97
2019-06-10T00:17:23.677Z,17.86
2019-06-10T00:18:38.789Z,17.90
2019-06-10T00:19:23.813Z,17.89
2019-06-10T00:20:23.873Z,17.97
2019-06-10T00:21:23.937Z,17.94
2019-06-10T00:22:24.005Z,17.83
2019-06-10T00:23:24.089Z,17.80
2019-06-10T00:24:24.149Z,17.78
2019-06-10T00:25:24.198Z,17.71
2019-06-10T00:26:24.262Z,17.79
2019-06-10T00:27:24.326Z,17.72
2019-06-10T00:28:24.398Z,17.78
2019-06-10T00:29:24.466Z,17.67
2019-06-10T00:30:24.522Z,17.65
2019-06-10T00:31:24.586Z,17.57
2019-06-10T00:32:24.654Z,17.51
2019-06-10T00:33:24.728Z,17.52
2019-06-10T00:34:24.792Z,17.56
2019-06-10T00:35:24.846Z,17.68
2019-06-10T00:36:24.912Z,17.68
2019-06-10T00:37:24.978Z,17.59
2019-06-10T00:38:25.050Z,17.63
2019-06-10T00:39:25.138Z,17.70
2019-06-10T00:40:25.170Z,17.64
2019-06-10T00:41:25.234Z,17.52
2019-06-10T00:42:25.303Z,17.60
2019-06-10T00:43:25.378Z,17.54
2019-06-10T00:44:25.431Z,17.46
2019-06-10T00:45:25.495Z,17.54
2019-06-10T00:46:25.562Z,17.56
2019-06-10T00:47:25.627Z,17.56
2019-06-10T00:48:29.118Z,17.57
2019-06-10T00:49:25.769Z,17.51
2019-06-10T00:50:25.819Z,17.49
2019-06-10T00:51:25.883Z,17.67
2019-06-10T00:52:25.951Z,17.63
2019-06-10T00:53:26.025Z,17.60
2019-06-10T00:54:26.087Z,17.64
2019-06-10T00:55:26.143Z,17.74
2019-06-10T00:56:26.207Z,17.71
2019-06-10T00:57:26.275Z,17.71
2019-06-10T00:58:26.347Z,17.82
2019-06-10T00:59:26.412Z,17.82
2019-06-10T01:00:26.467Z,17.82
2019-06-10T01:01:26.535Z,17.83
2019-06-10T01:02:26.601Z,17.82
2019-06-10T01:03:26.671Z,17.82
2019-06-10T01:04:26.735Z,17.76
2019-06-10T01:05:26.794Z,17.82
2019-06-10T01:06:26.864Z,17.86
2019-06-10T01:07:26.927Z,17.95
2019-06-10T01:08:26.996Z,17.83
2019-06-10T01:09:27.060Z,17.92
2019-06-10T01:10:27.123Z,17.85
2019-06-10T01:11:27.440Z,17.98
2019-06-10T01:12:27.248Z,17.86
2019-06-10T01:13:27.488Z,17.80
2019-06-10T01:14:27.376Z,17.80
2019-06-10T01:15:27.440Z,17.83
2019-06-10T01:16:27.508Z,17.85
2019-06-10T01:17:27.568Z,17.80
2019-06-10T01:18:37.482Z,17.85
2019-06-10T01:19:27.708Z,17.80
2019-06-10T01:20:27.764Z,17.80
2019-06-10T01:21:27.832Z,17.79
2019-06-10T01:22:27.908Z,17.72
2019-06-10T01:23:27.969Z,17.78
2019-06-10T01:24:28.032Z,17.83
2019-06-10T01:25:28.089Z,17.79
2019-06-10T01:26:30.849Z,17.74
2019-06-10T01:27:28.221Z,17.82
2019-06-10T01:28:31.189Z,17.74
2019-06-10T01:29:28.349Z,17.72
2019-06-10T01:30:31.100Z,17.64
2019-06-10T01:31:28.481Z,17.83
2019-06-10T01:32:31.034Z,17.71
2019-06-10T01:33:28.617Z,17.71
2019-06-10T01:34:30.966Z,17.80
2019-06-10T01:35:30.601Z,17.76
2019-06-10T01:36:31.204Z,17.82
2019-06-10T01:37:30.977Z,17.76
2019-06-10T01:38:31.521Z,17.64
2019-06-10T01:39:30.901Z,17.64
2019-06-10T01:40:31.302Z,17.65
2019-06-10T01:41:30.595Z,17.67
2019-06-10T01:42:30.704Z,17.59
2019-06-10T01:43:31.818Z,17.57
2019-06-10T01:44:30.967Z,17.59
2019-06-10T01:45:31.248Z,17.60
2019-06-10T01:46:31.471Z,17.59
2019-06-10T01:47:30.992Z,17.56
2019-06-10T01:48:43.266Z,17.60
2019-06-10T01:49:30.763Z,17.56
2019-06-10T01:50:31.175Z,17.49
2019-06-10T01:51:31.683Z,17.57
2019-06-10T01:52:31.644Z,17.54
2019-06-10T01:53:31.421Z,17.56
2019-06-10T01:54:31.715Z,17.57
2019-06-10T01:55:31.206Z,17.56
2019-06-10T01:56:31.512Z,17.51
2019-06-10T01:57:30.834Z,17.51
2019-06-10T01:58:31.569Z,17.54
2019-06-10T01:59:31.187Z,17.57
2019-06-10T02:00:31.191Z,17.51
2019-06-10T02:01:30.709Z,17.49
2019-06-10T02:02:34.992Z,17.51
2019-06-10T02:03:31.401Z,17.56
2019-06-10T02:04:32.068Z,17.49
2019-06-10T02:05:31.166Z,17.49
2019-06-10T02:06:31.640Z,17.42
2019-06-10T02:07:31.964Z,17.41
2019-06-10T02:08:31.647Z,17.45
2019-06-10T02:09:31.151Z,17.38
2019-06-10T02:10:31.144Z,17.38
2019-06-10T02:11:31.731Z,17.36
2019-06-10T02:12:31.633Z,17.26
2019-06-10T02:13:33.193Z,17.33
2019-06-10T02:14:31.739Z,17.34
2019-06-10T02:15:31.573Z,17.29
2019-06-10T02:16:32.568Z,17.26
2019-06-10T02:17:31.594Z,17.23
2019-06-10T02:18:32.125Z,17.16
2019-06-10T02:19:31.623Z,17.12
2019-06-10T02:20:31.854Z,17.09
2019-06-10T02:21:31.720Z,17.12
2019-06-10T02:22:31.933Z,17.08
2019-06-10T02:23:31.878Z,17.05
2019-06-10T02:24:31.936Z,17.04
2019-06-10T02:25:31.980Z,16.99
2019-06-10T02:26:32.045Z,16.97
2019-06-10T02:27:32.109Z,16.97
2019-06-10T02:28:32.280Z,16.93
2019-06-10T02:29:32.243Z,16.86
2019-06-10T02:30:44.063Z,16.84
2019-06-10T02:31:37.567Z,16.91
2019-06-10T02:32:37.459Z,16.86
2019-06-10T02:33:36.442Z,16.79
2019-06-10T02:34:36.645Z,16.83
2019-06-10T02:35:44.208Z,16.81
2019-06-10T02:36:36.915Z,16.71
2019-06-10T02:37:37.967Z,16.72
2019-06-10T02:38:38.639Z,16.76
2019-06-10T02:39:38.249Z,16.75
2019-06-10T02:40:36.462Z,16.74
2019-06-10T02:41:36.217Z,16.66
2019-06-10T02:42:35.856Z,16.74
2019-06-10T02:43:37.537Z,16.75
2019-06-10T02:44:37.640Z,16.72
2019-06-10T02:45:37.372Z,16.76
2019-06-10T02:46:36.255Z,16.76
2019-06-10T02:47:37.592Z,16.78
2019-06-10T02:48:34.974Z,16.72
2019-06-10T02:49:51.525Z,16.78
2019-06-10T02:50:36.376Z,16.79
2019-06-10T02:51:35.710Z,16.79
2019-06-10T02:52:38.102Z,16.81
2019-06-10T02:53:36.107Z,16.91
2019-06-10T02:54:35.895Z,16.86
2019-06-10T02:55:35.125Z,16.89
2019-06-10T02:56:36.445Z,16.83
2019-06-10T02:57:39.694Z,16.94
2019-06-10T02:58:38.979Z,16.89
2019-06-10T02:59:36.323Z,16.87
2019-06-10T03:00:42.747Z,17.02
2019-06-10T03:01:37.990Z,16.97
2019-06-10T03:02:36.435Z,17.01
2019-06-10T03:03:42.558Z,16.93
2019-06-10T03:04:37.645Z,16.99
2019-06-10T03:05:40.964Z,17.02
2019-06-10T03:06:39.346Z,16.97
2019-06-10T03:07:35.729Z,16.94
2019-06-10T03:08:36.169Z,17.04
2019-06-10T03:09:35.682Z,16.97
2019-06-10T03:10:37.253Z,17.04
2019-06-10T03:11:37.217Z,17.01
2019-06-10T03:12:35.018Z,17.02
2019-06-10T03:13:35.282Z,17.11
2019-06-10T03:14:35.146Z,17.08
2019-06-10T03:15:35.210Z,17.15
2019-06-10T03:16:35.274Z,17.15
2019-06-10T03:17:35.343Z,17.14
2019-06-10T03:18:35.415Z,17.05
2019-06-10T03:19:46.978Z,17.16
2019-06-10T03:20:35.535Z,17.19
2019-06-10T03:21:35.601Z,17.15
2019-06-10T03:22:35.663Z,17.20
2019-06-10T03:23:35.739Z,17.23
2019-06-10T03:24:35.800Z,17.20
2019-06-10T03:25:35.859Z,17.24
2019-06-10T03:26:35.924Z,17.22
2019-06-10T03:27:35.989Z,17.16
2019-06-10T03:28:36.059Z,17.19
2019-06-10T03:29:36.125Z,17.20
2019-06-10T03:30:47.831Z,17.22
2019-06-10T03:31:41.873Z,17.24
2019-06-10T03:32:40.979Z,17.19
2019-06-10T03:33:41.416Z,17.29
2019-06-10T03:34:41.991Z,17.29
2019-06-10T03:35:36.504Z,17.31
2019-06-10T03:36:36.568Z,17.29
2019-06-10T03:37:36.633Z,17.29
2019-06-10T03:38:37.169Z,17.20
2019-06-10T03:39:36.767Z,17.27
2019-06-10T03:40:36.828Z,17.26
2019-06-10T03:41:36.892Z,17.30
2019-06-10T03:42:36.956Z,17.33
2019-06-10T03:43:37.056Z,17.30
2019-06-10T03:44:37.092Z,17.33
2019-06-10T03:45:37.152Z,17.24
2019-06-10T03:46:37.219Z,17.27
2019-06-10T03:47:37.312Z,17.34
2019-06-10T03:48:37.636Z,17.30
2019-06-10T03:49:49.979Z,17.34
2019-06-10T03:50:37.472Z,17.30
2019-06-10T03:51:37.536Z,17.34
2019-06-10T03:52:37.606Z,17.39
2019-06-10T03:53:37.677Z,17.42
2019-06-10T03:54:37.740Z,17.39
2019-06-10T03:55:37.796Z,17.34
2019-06-10T03:56:37.861Z,17.33
2019-06-10T03:57:37.928Z,17.45
2019-06-10T03:58:38.000Z,17.34
2019-06-10T03:59:38.065Z,17.24
2019-06-10T04:00:38.121Z,17.30
2019-06-10T04:01:38.317Z,17.26
2019-06-10T04:02:38.249Z,17.33
2019-06-10T04:03:38.341Z,17.34
2019-06-10T04:04:38.381Z,17.34
2019-06-10T04:05:38.445Z,17.30
2019-06-10T04:06:38.509Z,17.24
2019-06-10T04:07:38.573Z,17.33
2019-06-10T04:08:38.645Z,17.34
2019-06-10T04:09:38.710Z,17.38
2019-06-10T04:10:38.769Z,17.44
2019-06-10T04:11:38.907Z,17.39
2019-06-10T04:12:38.900Z,17.42
2019-06-10T04:13:38.976Z,17.46
2019-06-10T04:14:39.034Z,17.46
2019-06-10T04:15:39.091Z,17.52
2019-06-10T04:16:39.155Z,17.68
2019-06-10T04:17:39.222Z,17.64
2019-06-10T04:18:39.286Z,17.65
2019-06-10T04:19:39.463Z,17.63
2019-06-10T04:20:39.414Z,17.60
2019-06-10T04:21:39.478Z,17.67
2019-06-10T04:22:39.546Z,17.65
2019-06-10T04:23:42.149Z,17.72
2019-06-10T04:24:39.682Z,17.63
2019-06-10T04:25:39.746Z,17.64
2019-06-10T04:26:39.802Z,17.78
2019-06-10T04:27:42.281Z,17.74
2019-06-10T04:28:39.934Z,17.80
2019-06-10T04:29:42.068Z,17.72
2019-06-10T04:30:40.071Z,17.76
2019-06-10T04:31:42.291Z,17.80
2019-06-10T04:32:40.191Z,17.85
2019-06-10T04:33:42.095Z,17.87
2019-06-10T04:34:42.724Z,17.82
2019-06-10T04:35:42.585Z,17.95
2019-06-10T04:36:42.313Z,17.95
2019-06-10T04:37:42.639Z,17.86
2019-06-10T04:38:42.979Z,17.90
2019-06-10T04:39:42.629Z,17.95
2019-06-10T04:40:42.955Z,17.87
2019-06-10T04:41:42.715Z,17.97
2019-06-10T04:42:43.351Z,17.92
2019-06-10T04:43:43.085Z,17.90
2019-06-10T04:44:42.298Z,17.94
2019-06-10T04:45:42.938Z,17.92
2019-06-10T04:46:42.746Z,17.97
2019-06-10T04:47:43.159Z,17.94
2019-06-10T04:48:42.658Z,17.94
2019-06-10T04:49:42.854Z,17.90
2019-06-10T04:50:46.087Z,17.90
2019-06-10T04:51:43.511Z,18.00
2019-06-10T04:52:43.108Z,17.98
2019-06-10T04:53:43.473Z,17.87
2019-06-10T04:54:42.118Z,17.90
2019-06-10T04:55:43.092Z,17.94
2019-06-10T04:56:42.833Z,17.97
2019-06-10T04:57:43.139Z,17.90
2019-06-10T04:58:43.218Z,17.97
2019-06-10T04:59:42.840Z,17.95
2019-06-10T05:00:42.877Z,18.01
2019-06-10T05:01:42.695Z,17.98
2019-06-10T05:02:43.099Z,18.01
2019-06-10T05:03:43.357Z,18.00
2019-06-10T05:04:42.692Z,18.03
2019-06-10T05:05:43.050Z,18.10
2019-06-10T05:06:42.484Z,18.11
2019-06-10T05:07:42.866Z,18.13
2019-06-10T05:08:42.826Z,18.11
2019-06-10T05:09:42.600Z,18.05
2019-06-10T05:10:42.664Z,18.15
2019-06-10T05:11:43.188Z,18.23
2019-06-10T05:12:43.402Z,18.23
2019-06-10T05:13:43.166Z,18.26
2019-06-10T05:14:43.341Z,18.31
2019-06-10T05:15:43.416Z,18.34
2019-06-10T05:16:43.367Z,18.38
2019-06-10T05:17:43.914Z,18.41
2019-06-10T05:18:43.177Z,18.38
2019-06-10T05:19:43.241Z,18.37
2019-06-10T05:20:53.997Z,18.47
2019-06-10T05:21:43.373Z,18.45
2019-06-10T05:22:43.437Z,18.50
2019-06-10T05:23:43.501Z,18.65
2019-06-10T05:24:43.565Z,18.63
2019-06-10T05:25:43.725Z,18.75
2019-06-10T05:26:43.729Z,18.78
2019-06-10T05:27:43.761Z,18.74
2019-06-10T05:28:43.825Z,18.95
2019-06-10T05:29:43.893Z,18.95
2019-06-10T05:30:43.965Z,18.98
2019-06-10T05:31:44.030Z,18.93
2019-06-10T05:32:44.089Z,18.93
2019-06-10T05:33:44.154Z,19.00
2019-06-10T05:34:44.218Z,18.93
2019-06-10T05:35:44.282Z,18.88
2019-06-10T05:36:44.446Z,18.95
2019-06-10T05:37:44.413Z,18.98
2019-06-10T05:38:44.479Z,18.98
2019-06-10T05:39:44.542Z,19.02
2019-06-10T05:40:44.610Z,19.11
2019-06-10T05:41:44.689Z,19.11
2019-06-10T05:42:44.746Z,19.11
2019-06-10T05:43:44.806Z,19.00
2019-06-10T05:44:44.870Z,18.96
2019-06-10T05:45:44.938Z,19.07
2019-06-10T05:46:45.006Z,18.98
2019-06-10T05:47:45.074Z,18.99
2019-06-10T05:48:45.134Z,18.95
2019-06-10T05:49:45.198Z,18.96
2019-06-10T05:50:59.295Z,18.98
2019-06-10T05:51:45.346Z,18.98
2019-06-10T05:52:45.393Z,18.96
2019-06-10T05:53:46.419Z,18.93
2019-06-10T05:54:45.522Z,19.00
2019-06-10T05:55:45.586Z,19.00
2019-06-10T05:56:45.658Z,19.02
2019-06-10T05:57:45.731Z,19.09
2019-06-10T05:58:45.782Z,19.16
2019-06-10T05:59:45.855Z,19.26
2019-06-10T06:00:45.915Z,19.22
2019-06-10T06:01:45.987Z,19.26
2019-06-10T06:02:46.060Z,19.29
2019-06-10T06:03:46.111Z,19.37
2019-06-10T06:04:46.176Z,19.36
2019-06-10T06:05:46.243Z,19.33
2019-06-10T06:06:46.411Z,19.16
2019-06-10T06:08:01.067Z,19.26
2019-06-10T06:08:46.440Z,19.33
2019-06-10T06:09:46.503Z,19.22
2019-06-10T06:10:46.567Z,19.16
2019-06-10T06:11:46.643Z,19.16
2019-06-10T06:12:46.707Z,19.26
2019-06-10T06:13:46.763Z,19.26
2019-06-10T06:14:46.834Z,19.26
2019-06-10T06:15:46.896Z,19.22
2019-06-10T06:16:46.970Z,19.33
2019-06-10T06:17:47.035Z,19.41
2019-06-10T06:18:47.092Z,19.41
2019-06-10T06:19:47.156Z,19.36
2019-06-10T06:20:47.224Z,19.45
2019-06-10T06:21:47.973Z,19.44
2019-06-10T06:22:47.356Z,19.45
2019-06-10T06:23:47.421Z,19.55
2019-06-10T06:24:47.483Z,19.52
2019-06-10T06:25:47.570Z,19.52
2019-06-10T06:26:47.624Z,19.64
2019-06-10T06:27:47.689Z,19.66
2019-06-10T06:28:47.751Z,19.67
2019-06-10T06:29:47.812Z,19.71
2019-06-10T06:30:47.880Z,19.74
2019-06-10T06:31:47.952Z,19.79
2019-06-10T06:32:48.018Z,19.92
2019-06-10T06:33:48.077Z,19.99
2019-06-10T06:34:48.144Z,20.04
2019-06-10T06:35:48.209Z,20.19
2019-06-10T06:36:48.376Z,20.37
2019-06-10T06:37:48.343Z,20.52
2019-06-10T06:38:48.404Z,20.58
2019-06-10T06:39:48.472Z,20.80
2019-06-10T06:40:48.539Z,21.14
2019-06-10T06:41:48.613Z,21.66
2019-06-10T06:42:48.689Z,21.88
2019-06-10T06:43:48.744Z,21.88
2019-06-10T06:44:48.810Z,21.91
2019-06-10T06:45:48.876Z,21.83
2019-06-10T06:46:48.945Z,21.96
2019-06-10T06:47:49.009Z,22.20
2019-06-10T06:48:49.069Z,22.23
2019-06-10T06:49:49.137Z,22.25
2019-06-10T06:51:01.801Z,22.28
2019-06-10T06:51:55.090Z,22.29
2019-06-10T06:53:19.028Z,22.26
2019-06-10T06:53:55.349Z,22.32
2019-06-10T06:54:49.481Z,22.41
2019-06-10T06:55:53.414Z,22.39
2019-06-10T06:56:49.613Z,22.35
2019-06-10T06:57:49.687Z,22.29
2019-06-10T06:58:52.229Z,22.29
2019-06-10T06:59:49.810Z,22.28
2019-06-10T07:01:01.365Z,22.28
2019-06-10T07:01:52.305Z,22.10
2019-06-10T07:02:52.800Z,22.02
2019-06-10T07:03:50.090Z,22.02
2019-06-10T07:04:52.423Z,21.95
2019-06-10T07:05:50.218Z,22.02
2019-06-10T07:06:53.390Z,21.96
2019-06-10T07:07:52.635Z,22.06
2019-06-10T07:09:01.437Z,22.06
2019-06-10T07:09:52.573Z,22.45
2019-06-10T07:10:52.280Z,22.53
2019-06-10T07:11:52.850Z,22.70
2019-06-10T07:12:52.317Z,22.99
2019-06-10T07:13:53.336Z,23.34
2019-06-10T07:14:52.587Z,23.43
2019-06-10T07:15:53.329Z,23.50
2019-06-10T07:16:52.955Z,23.54
2019-06-10T07:17:52.631Z,23.48
2019-06-10T07:18:53.681Z,23.55
2019-06-10T07:19:52.877Z,23.93
2019-06-10T07:20:53.914Z,24.48
2019-06-10T07:22:08.800Z,24.91
2019-06-10T07:22:53.325Z,25.58
2019-06-10T07:23:52.801Z,25.73
2019-06-10T07:24:52.887Z,25.55
2019-06-10T07:25:53.196Z,25.70
2019-06-10T07:26:54.865Z,26.06
2019-06-10T07:27:52.738Z,26.38
2019-06-10T07:28:53.764Z,26.66
2019-06-10T07:29:52.940Z,26.18
2019-06-10T07:30:55.253Z,26.03
2019-06-10T07:31:53.575Z,25.83
2019-06-10T07:32:52.800Z,25.78
2019-06-10T07:33:52.683Z,25.88
2019-06-10T07:34:52.555Z,25.62
2019-06-10T07:35:52.853Z,25.17
2019-06-10T07:36:52.440Z,24.92
2019-06-10T07:37:52.500Z,24.65
2019-06-10T07:38:53.816Z,24.43
2019-06-10T07:39:52.565Z,24.18
2019-06-10T07:40:53.113Z,24.06
2019-06-10T07:41:53.071Z,24.02
2019-06-10T07:42:53.128Z,24.35
2019-06-10T07:43:53.166Z,24.74
2019-06-10T07:44:53.363Z,24.88
2019-06-10T07:45:53.493Z,25.14
2019-06-10T07:46:53.268Z,25.04
2019-06-10T07:47:53.128Z,25.06
2019-06-10T07:48:56.510Z,25.10
2019-06-10T07:49:53.260Z,25.11
2019-06-10T07:50:53.328Z,25.54
2019-06-10T07:51:53.400Z,25.46
2019-06-10T07:52:53.487Z,25.60
2019-06-10T07:53:53.544Z,25.55
2019-06-10T07:54:53.608Z,25.43
2019-06-10T07:55:53.701Z,25.31
2019-06-10T07:56:54.005Z,25.06
2019-06-10T07:57:53.824Z,24.98
2019-06-10T07:58:53.893Z,24.98
2019-06-10T07:59:53.956Z,24.88
2019-06-10T08:00:54.024Z,24.81
2019-06-10T08:01:55.236Z,24.80
2019-06-10T08:02:54.177Z,24.61
2019-06-10T08:03:54.233Z,24.47
2019-06-10T08:04:54.582Z,24.43
2019-06-10T08:05:54.372Z,24.29
2019-06-10T08:06:54.449Z,24.29
2019-06-10T08:07:54.905Z,24.21
2019-06-10T08:08:54.585Z,24.16
2019-06-10T08:09:54.649Z,24.23
2019-06-10T08:10:54.722Z,24.24
2019-06-10T08:11:54.785Z,24.70
2019-06-10T08:12:54.862Z,25.36
2019-06-10T08:13:54.935Z,25.59
2019-06-10T08:14:54.994Z,25.98
2019-06-10T08:15:55.064Z,26.90
2019-06-10T08:16:55.136Z,27.17
2019-06-10T08:17:55.213Z,27.27
2019-06-10T08:19:20.391Z,27.22
2019-06-10T08:19:55.347Z,27.08
2019-06-10T08:20:55.425Z,26.93
2019-06-10T08:21:55.481Z,26.92
2019-06-10T08:22:57.856Z,26.97
2019-06-10T08:23:55.635Z,27.07
2019-06-10T08:24:55.701Z,27.14
2019-06-10T08:25:57.769Z,27.10
2019-06-10T08:26:55.835Z,26.97
2019-06-10T08:27:55.910Z,26.84
2019-06-10T08:28:55.982Z,26.84
2019-06-10T08:30:14.086Z,27.25
2019-06-10T08:30:56.117Z,27.80
2019-06-10T08:31:56.186Z,28.54
2019-06-10T08:32:56.634Z,28.64
2019-06-10T08:33:56.338Z,28.25
2019-06-10T08:34:56.402Z,28.48
2019-06-10T08:36:00.410Z,28.75
2019-06-10T08:36:56.547Z,28.75
2019-06-10T08:37:56.614Z,27.93
2019-06-10T08:38:56.694Z,27.77
2019-06-10T08:39:56.768Z,27.86
2019-06-10T08:40:56.831Z,28.38
2019-06-10T08:41:56.902Z,28.84
2019-06-10T08:42:56.980Z,29.23
2019-06-10T08:43:57.059Z,29.22
2019-06-10T08:44:59.901Z,29.38
2019-06-10T08:45:57.196Z,30.02
2019-06-10T08:46:57.267Z,30.30
2019-06-10T08:47:57.343Z,30.00
2019-06-10T08:48:57.423Z,29.54
2019-06-10T08:49:57.497Z,28.94
2019-06-10T08:50:57.563Z,28.26
2019-06-10T08:51:57.635Z,27.93
2019-06-10T08:53:12.816Z,28.14
2019-06-10T08:53:57.787Z,27.86
2019-06-10T08:54:57.859Z,28.00
2019-06-10T08:55:57.923Z,28.38
2019-06-10T08:56:57.995Z,28.70
2019-06-10T08:57:58.071Z,28.93
2019-06-10T08:58:58.235Z,28.97
2019-06-10T08:59:58.215Z,28.97
2019-06-10T09:00:58.290Z,28.74
2019-06-10T09:01:58.419Z,28.82
2019-06-10T09:02:58.431Z,28.78
2019-06-10T09:03:58.512Z,28.56
2019-06-10T09:04:58.587Z,28.72
2019-06-10T09:05:58.696Z,28.38
2019-06-10T09:06:58.724Z,28.20
2019-06-10T09:07:58.804Z,28.22
2019-06-10T09:08:58.876Z,28.33
2019-06-10T09:09:58.950Z,28.66
2019-06-10T09:10:59.012Z,28.96
2019-06-10T09:11:59.085Z,29.08
2019-06-10T09:12:59.156Z,29.05
2019-06-10T09:13:59.252Z,28.67
2019-06-10T09:14:59.305Z,28.89
2019-06-10T09:16:10.890Z,28.69
2019-06-10T09:16:59.448Z,28.47
2019-06-10T09:17:59.521Z,28.62
2019-06-10T09:19:02.092Z,28.84
2019-06-10T09:19:59.673Z,29.10
2019-06-10T09:21:02.163Z,29.49
2019-06-10T09:21:59.810Z,29.66
2019-06-10T09:23:15.066Z,30.08
2019-06-10T09:24:03.611Z,30.19
2019-06-10T09:25:02.743Z,30.32
2019-06-10T09:26:00.097Z,30.47
2019-06-10T09:27:02.711Z,30.39
2019-06-10T09:28:02.326Z,30.30
2019-06-10T09:29:02.951Z,29.68
2019-06-10T09:30:02.824Z,29.79
2019-06-10T09:31:03.656Z,29.81
2019-06-10T09:32:02.151Z,29.82
2019-06-10T09:33:03.864Z,30.02
2019-06-10T09:34:03.364Z,30.10
2019-06-10T09:35:03.227Z,30.54
2019-06-10T09:36:03.008Z,30.66
2019-06-10T09:37:03.158Z,30.83
2019-06-10T09:38:03.514Z,30.85
2019-06-10T09:39:03.737Z,30.99
2019-06-10T09:40:03.402Z,31.25
2019-06-10T09:41:05.191Z,31.29
2019-06-10T09:42:05.926Z,31.33
2019-06-10T09:43:02.457Z,31.43
2019-06-10T09:44:03.219Z,31.44
2019-06-10T09:45:02.633Z,31.52
2019-06-10T09:46:03.473Z,31.20
2019-06-10T09:47:03.354Z,31.09
2019-06-10T09:48:03.982Z,31.10
2019-06-10T09:49:02.209Z,30.92
2019-06-10T09:50:03.211Z,30.73
2019-06-10T09:51:02.601Z,30.78
2019-06-10T09:52:03.452Z,30.70
2019-06-10T09:53:03.383Z,30.69
2019-06-10T09:54:06.352Z,30.70
2019-06-10T09:55:03.214Z,30.70
2019-06-10T09:56:04.099Z,30.75
2019-06-10T09:57:02.598Z,30.59
2019-06-10T09:58:03.183Z,30.44
2019-06-10T09:59:03.773Z,30.19
2019-06-10T10:00:03.403Z,30.15
2019-06-10T10:01:03.487Z,30.12
2019-06-10T10:02:06.173Z,30.35
2019-06-10T10:03:03.481Z,30.61
2019-06-10T10:04:02.878Z,30.90
2019-06-10T10:05:03.052Z,30.87
2019-06-10T10:06:11.455Z,30.77
2019-06-10T10:07:03.248Z,30.72
2019-06-10T10:08:03.156Z,30.61
2019-06-10T10:09:04.109Z,30.80
2019-06-10T10:10:04.512Z,30.80
2019-06-10T10:11:03.378Z,30.50
2019-06-10T10:12:03.448Z,30.34
2019-06-10T10:13:03.520Z,30.27
2019-06-10T10:14:08.165Z,30.15
2019-06-10T10:15:22.586Z,30.16
2019-06-10T10:16:03.737Z,30.10
2019-06-10T10:17:04.742Z,30.28
2019-06-10T10:18:03.881Z,30.62
2019-06-10T10:19:05.179Z,30.62
2019-06-10T10:20:04.037Z,30.47
2019-06-10T10:21:04.156Z,30.40
2019-06-10T10:22:04.180Z,30.57
2019-06-10T10:23:04.249Z,30.63
2019-06-10T10:24:09.884Z,30.39
2019-06-10T10:25:04.499Z,30.44
2019-06-10T10:26:04.462Z,30.25
2019-06-10T10:27:08.280Z,30.47
2019-06-10T10:28:04.608Z,30.40
2019-06-10T10:29:05.166Z,30.37
2019-06-10T10:30:04.761Z,30.51
2019-06-10T10:31:04.944Z,30.70
2019-06-10T10:32:04.894Z,30.80
2019-06-10T10:33:04.970Z,30.90
2019-06-10T10:34:05.041Z,30.55
2019-06-10T10:35:05.216Z,30.62
2019-06-10T10:36:05.182Z,30.75
2019-06-10T10:37:05.256Z,30.70
2019-06-10T10:38:05.327Z,30.88
2019-06-10T10:39:05.398Z,30.65
2019-06-10T10:40:05.482Z,30.50
2019-06-10T10:41:05.554Z,30.53
2019-06-10T10:42:05.626Z,30.16
2019-06-10T10:43:23.370Z,30.13
2019-06-10T10:44:05.755Z,30.03
2019-06-10T10:45:05.840Z,29.84
2019-06-10T10:46:06.205Z,29.59
2019-06-10T10:47:05.986Z,29.72
2019-06-10T10:48:06.044Z,29.65
2019-06-10T10:49:06.116Z,29.59
2019-06-10T10:50:06.203Z,29.73
2019-06-10T10:51:06.289Z,29.19
2019-06-10T10:52:06.334Z,29.29
2019-06-10T10:53:06.400Z,29.32
2019-06-10T10:54:24.690Z,29.42
2019-06-10T10:55:07.095Z,29.45
2019-06-10T10:56:06.658Z,29.38
2019-06-10T10:57:06.683Z,28.96
2019-06-10T10:58:06.760Z,29.12
2019-06-10T10:59:06.827Z,29.16
2019-06-10T11:00:06.908Z,29.17
2019-06-10T11:01:06.976Z,29.24
2019-06-10T11:02:07.039Z,29.22
2019-06-10T11:03:07.116Z,29.26
2019-06-10T11:04:07.188Z,29.17
2019-06-10T11:05:07.252Z,28.76
2019-06-10T11:06:07.492Z,28.74
2019-06-10T11:07:07.399Z,28.82
2019-06-10T11:08:07.472Z,28.97
2019-06-10T11:09:07.540Z,29.02
2019-06-10T11:10:07.612Z,29.04
2019-06-10T11:11:07.689Z,29.19
2019-06-10T11:12:07.757Z,29.34
2019-06-10T11:13:07.824Z,29.42
2019-06-10T11:14:07.904Z,29.44
2019-06-10T11:15:07.964Z,29.50
2019-06-10T11:16:08.054Z,29.65
2019-06-10T11:17:08.120Z,29.29
2019-06-10T11:18:08.184Z,28.89
2019-06-10T11:19:08.248Z,28.84
2019-06-10T11:20:08.321Z,29.02
2019-06-10T11:21:08.416Z,28.98
2019-06-10T11:22:08.465Z,28.94
2019-06-10T11:23:08.536Z,28.89
2019-06-10T11:24:08.604Z,28.79
2019-06-10T11:25:08.677Z,28.81
2019-06-10T11:26:08.757Z,28.93
2019-06-10T11:27:08.829Z,28.79
2019-06-10T11:28:08.889Z,29.08
2019-06-10T11:29:08.960Z,28.79
2019-06-10T11:30:09.037Z,28.66
2019-06-10T11:31:09.137Z,28.97
2019-06-10T11:32:09.177Z,29.12
2019-06-10T11:33:09.264Z,29.23
2019-06-10T11:34:09.317Z,29.34
2019-06-10T11:35:09.390Z,29.32
2019-06-10T11:36:09.469Z,29.27
2019-06-10T11:37:09.537Z,29.12
2019-06-10T11:38:09.606Z,29.08
2019-06-10T11:39:09.673Z,29.16
2019-06-10T11:40:09.745Z,29.02
2019-06-10T11:41:09.825Z,28.81
2019-06-10T11:42:09.894Z,28.86
2019-06-10T11:43:09.958Z,28.97
2019-06-10T11:44:10.031Z,29.04
2019-06-10T11:45:10.101Z,29.20
2019-06-10T11:46:12.826Z,29.14
2019-06-10T11:47:12.582Z,29.29
2019-06-10T11:48:10.314Z,29.45
2019-06-10T11:49:12.615Z,29.69
2019-06-10T11:50:12.146Z,29.79
2019-06-10T11:51:12.898Z,29.95
2019-06-10T11:52:12.622Z,29.97
2019-06-10T11:53:12.820Z,30.16
2019-06-10T11:54:12.912Z,30.32
2019-06-10T11:55:16.537Z,30.48
2019-06-10T11:56:13.085Z,30.23
2019-06-10T11:57:12.498Z,30.32
2019-06-10T11:58:11.028Z,30.39
2019-06-10T11:59:13.400Z,30.16
2019-06-10T12:00:14.730Z,30.19
2019-06-10T12:01:12.992Z,30.13
2019-06-10T12:02:13.266Z,30.13
2019-06-10T12:03:13.152Z,30.06
2019-06-10T12:04:12.849Z,30.06
2019-06-10T12:05:13.068Z,30.10
2019-06-10T12:06:13.527Z,30.10
2019-06-10T12:07:12.840Z,29.47
2019-06-10T12:08:13.087Z,29.23
2019-06-10T12:09:13.783Z,29.16
2019-06-10T12:10:12.818Z,29.08
2019-06-10T12:11:12.697Z,29.24
2019-06-10T12:12:12.980Z,29.26
2019-06-10T12:13:13.360Z,29.32
2019-06-10T12:14:12.829Z,29.44
2019-06-10T12:15:12.271Z,29.31
2019-06-10T12:17:24.948Z,29.47
2019-06-10T12:18:13.157Z,29.41
2019-06-10T12:19:12.864Z,29.53
2019-06-10T12:20:13.317Z,29.57
2019-06-10T12:21:13.398Z,29.93
2019-06-10T12:22:13.380Z,29.66
2019-06-10T12:23:13.454Z,29.75
2019-06-10T12:24:12.952Z,29.51
2019-06-10T12:25:31.660Z,29.60
2019-06-10T12:26:13.031Z,29.66
2019-06-10T12:27:13.236Z,29.51
2019-06-10T12:28:13.168Z,29.50
2019-06-10T12:29:13.240Z,29.57
2019-06-10T12:30:14.365Z,29.59
2019-06-10T12:31:13.871Z,29.60
2019-06-10T12:32:13.622Z,29.59
2019-06-10T12:33:21.318Z,29.61
2019-06-10T12:34:13.596Z,29.51
2019-06-10T12:35:13.880Z,29.56
2019-06-10T12:36:13.744Z,29.47
2019-06-10T12:37:15.946Z,29.20
2019-06-10T12:38:13.994Z,29.24
2019-06-10T12:39:17.033Z,29.23
2019-06-10T12:40:14.051Z,29.31
2019-06-10T12:41:14.311Z,29.38
2019-06-10T12:42:14.423Z,29.38
2019-06-10T12:43:14.241Z,29.41
2019-06-10T12:44:14.308Z,29.41
2019-06-10T12:45:14.378Z,29.49
2019-06-10T12:46:14.457Z,29.44
2019-06-10T12:47:14.525Z,29.56
2019-06-10T12:48:14.589Z,29.54
2019-06-10T12:49:18.310Z,29.49
2019-06-10T12:50:14.737Z,29.53
2019-06-10T12:51:14.815Z,29.57
2019-06-10T12:52:14.881Z,29.45
2019-06-10T12:53:14.945Z,29.35
2019-06-10T12:54:15.013Z,29.36